sensor_id;sensor_type;location;lat;lon;timestamp;P1;durP1;ratioP1;P2;durP2;ratioP2
56141;SDS011;42018;48.588;10.836;2024-02-26T00:01:10;7.13;;;4.05;;
56141;SDS011;42018;48.588;10.836;2024-02-26T00:03:56;7.22;;;4.28;;
56141;SDS011;42018;48.588;10.836;2024-02-26T00:06:44;6.82;;;4.22;;
56141;SDS011;42018;48.588;10.836;2024-02-26T00:09:30;7.22;;;4.40;;
56141;SDS011;42018;48.588;10.836;2024-02-26T00:12:15;7.43;;;4.70;;
56141;SDS011;42018;48.588;10.836;2024-02-26T00:15:01;6.80;;;4.30;;
56141;SDS011;42018;48.588;10.836;2024-02-26T00:17:47;6.75;;;3.85;;
56141;SDS011;42018;48.588;10.836;2024-02-26T00:20:32;8.50;;;5.13;;
56141;SDS011;42018;48.588;10.836;2024-02-26T00:23:18;9.57;;;4.60;;
56141;SDS011;42018;48.588;10.836;2024-02-26T00:26:03;7.82;;;4.93;;
56141;SDS011;42018;48.588;10.836;2024-02-26T00:28:49;7.53;;;4.63;;
56141;SDS011;42018;48.588;10.836;2024-02-26T00:31:34;8.77;;;5.05;;
56141;SDS011;42018;48.588;10.836;2024-02-26T00:34:22;8.20;;;5.05;;
56141;SDS011;42018;48.588;10.836;2024-02-26T00:37:07;8.07;;;4.85;;
56141;SDS011;42018;48.588;10.836;2024-02-26T00:39:53;8.00;;;5.15;;
56141;SDS011;42018;48.588;10.836;2024-02-26T00:42:39;8.50;;;5.35;;
56141;SDS011;42018;48.588;10.836;2024-02-26T00:45:30;8.20;;;5.30;;
56141;SDS011;42018;48.588;10.836;2024-02-26T00:48:17;9.23;;;5.35;;
56141;SDS011;42018;48.588;10.836;2024-02-26T00:51:03;9.90;;;6.10;;
56141;SDS011;42018;48.588;10.836;2024-02-26T00:53:52;9.23;;;5.57;;
56141;SDS011;42018;48.588;10.836;2024-02-26T00:56:39;9.02;;;5.55;;
56141;SDS011;42018;48.588;10.836;2024-02-26T00:59:24;8.25;;;5.07;;
56141;SDS011;42018;48.588;10.836;2024-02-26T01:02:10;6.90;;;4.25;;
56141;SDS011;42018;48.588;10.836;2024-02-26T01:04:55;8.07;;;4.68;;
56141;SDS011;42018;48.588;10.836;2024-02-26T01:07:41;7.72;;;4.68;;
56141;SDS011;42018;48.588;10.836;2024-02-26T01:10:26;8.00;;;4.32;;
56141;SDS011;42018;48.588;10.836;2024-02-26T01:13:12;9.10;;;5.10;;
56141;SDS011;42018;48.588;10.836;2024-02-26T01:15:57;8.75;;;4.85;;
56141;SDS011;42018;48.588;10.836;2024-02-26T01:18:46;10.82;;;6.47;;
56141;SDS011;42018;48.588;10.836;2024-02-26T01:21:31;9.40;;;6.18;;
56141;SDS011;42018;48.588;10.836;2024-02-26T01:24:17;8.98;;;5.68;;
56141;SDS011;42018;48.588;10.836;2024-02-26T01:27:03;9.52;;;5.95;;
56141;SDS011;42018;48.588;10.836;2024-02-26T01:29:49;8.20;;;5.20;;
56141;SDS011;42018;48.588;10.836;2024-02-26T01:32:35;10.10;;;5.85;;
56141;SDS011;42018;48.588;10.836;2024-02-26T01:35:21;8.98;;;5.03;;
56141;SDS011;42018;48.588;10.836;2024-02-26T01:38:06;9.45;;;5.88;;
56141;SDS011;42018;48.588;10.836;2024-02-26T01:40:52;8.70;;;5.60;;
56141;SDS011;42018;48.588;10.836;2024-02-26T01:43:37;9.85;;;6.20;;
56141;SDS011;42018;48.588;10.836;2024-02-26T01:46:23;9.70;;;6.43;;
56141;SDS011;42018;48.588;10.836;2024-02-26T01:49:08;12.57;;;7.45;;
56141;SDS011;42018;48.588;10.836;2024-02-26T01:51:57;11.35;;;7.10;;
56141;SDS011;42018;48.588;10.836;2024-02-26T01:54:44;11.40;;;7.25;;
56141;SDS011;42018;48.588;10.836;2024-02-26T01:57:30;10.25;;;6.43;;
56141;SDS011;42018;48.588;10.836;2024-02-26T02:00:16;12.00;;;6.88;;
56141;SDS011;42018;48.588;10.836;2024-02-26T02:03:03;9.60;;;6.18;;
56141;SDS011;42018;48.588;10.836;2024-02-26T02:05:49;10.02;;;6.80;;
56141;SDS011;42018;48.588;10.836;2024-02-26T02:08:35;11.48;;;7.05;;
56141;SDS011;42018;48.588;10.836;2024-02-26T02:11:21;12.07;;;7.25;;
56141;SDS011;42018;48.588;10.836;2024-02-26T02:14:06;9.88;;;6.20;;
56141;SDS011;42018;48.588;10.836;2024-02-26T02:16:52;10.27;;;6.22;;
56141;SDS011;42018;48.588;10.836;2024-02-26T02:19:37;11.65;;;6.85;;
56141;SDS011;42018;48.588;10.836;2024-02-26T02:22:23;10.65;;;6.75;;
56141;SDS011;42018;48.588;10.836;2024-02-26T02:25:08;9.60;;;7.00;;
56141;SDS011;42018;48.588;10.836;2024-02-26T02:27:54;12.40;;;7.07;;
56141;SDS011;42018;48.588;10.836;2024-02-26T02:30:41;12.00;;;6.93;;
56141;SDS011;42018;48.588;10.836;2024-02-26T02:33:26;10.05;;;5.93;;
56141;SDS011;42018;48.588;10.836;2024-02-26T02:36:12;12.05;;;7.25;;
56141;SDS011;42018;48.588;10.836;2024-02-26T02:38:57;11.98;;;7.32;;
56141;SDS011;42018;48.588;10.836;2024-02-26T02:41:43;12.77;;;7.78;;
56141;SDS011;42018;48.588;10.836;2024-02-26T02:44:29;11.38;;;6.50;;
56141;SDS011;42018;48.588;10.836;2024-02-26T02:47:14;10.40;;;7.03;;
56141;SDS011;42018;48.588;10.836;2024-02-26T02:50:03;11.98;;;7.50;;
56141;SDS011;42018;48.588;10.836;2024-02-26T02:52:49;12.18;;;7.75;;
56141;SDS011;42018;48.588;10.836;2024-02-26T02:55:35;12.05;;;7.47;;
56141;SDS011;42018;48.588;10.836;2024-02-26T02:58:20;11.25;;;6.88;;
56141;SDS011;42018;48.588;10.836;2024-02-26T03:01:06;10.73;;;6.65;;
56141;SDS011;42018;48.588;10.836;2024-02-26T03:03:51;13.40;;;7.32;;
56141;SDS011;42018;48.588;10.836;2024-02-26T03:06:37;13.27;;;7.25;;
56141;SDS011;42018;48.588;10.836;2024-02-26T03:09:22;11.50;;;7.38;;
56141;SDS011;42018;48.588;10.836;2024-02-26T03:12:08;10.30;;;7.22;;
56141;SDS011;42018;48.588;10.836;2024-02-26T03:14:54;14.30;;;8.50;;
56141;SDS011;42018;48.588;10.836;2024-02-26T03:17:39;12.40;;;7.68;;
56141;SDS011;42018;48.588;10.836;2024-02-26T03:20:25;11.80;;;7.85;;
56141;SDS011;42018;48.588;10.836;2024-02-26T03:23:10;12.60;;;7.55;;
56141;SDS011;42018;48.588;10.836;2024-02-26T03:25:58;12.80;;;8.07;;
56141;SDS011;42018;48.588;10.836;2024-02-26T03:28:43;10.85;;;6.78;;
56141;SDS011;42018;48.588;10.836;2024-02-26T03:31:29;12.55;;;8.55;;
56141;SDS011;42018;48.588;10.836;2024-02-26T03:34:14;14.20;;;8.75;;
56141;SDS011;42018;48.588;10.836;2024-02-26T03:37:00;12.85;;;7.80;;
56141;SDS011;42018;48.588;10.836;2024-02-26T03:39:46;14.75;;;8.02;;
56141;SDS011;42018;48.588;10.836;2024-02-26T03:42:32;11.48;;;7.03;;
56141;SDS011;42018;48.588;10.836;2024-02-26T03:45:17;14.48;;;8.27;;
56141;SDS011;42018;48.588;10.836;2024-02-26T03:48:03;11.52;;;7.32;;
56141;SDS011;42018;48.588;10.836;2024-02-26T03:50:49;11.40;;;7.32;;
56141;SDS011;42018;48.588;10.836;2024-02-26T03:53:34;13.13;;;7.63;;
56141;SDS011;42018;48.588;10.836;2024-02-26T03:56:20;12.73;;;7.75;;
56141;SDS011;42018;48.588;10.836;2024-02-26T03:59:05;13.35;;;6.97;;
56141;SDS011;42018;48.588;10.836;2024-02-26T04:01:51;12.63;;;7.57;;
56141;SDS011;42018;48.588;10.836;2024-02-26T04:04:37;15.10;;;9.35;;
56141;SDS011;42018;48.588;10.836;2024-02-26T04:07:22;12.77;;;8.02;;
56141;SDS011;42018;48.588;10.836;2024-02-26T04:10:09;14.27;;;8.18;;
56141;SDS011;42018;48.588;10.836;2024-02-26T04:12:57;13.45;;;8.10;;
56141;SDS011;42018;48.588;10.836;2024-02-26T04:15:43;12.25;;;8.20;;
56141;SDS011;42018;48.588;10.836;2024-02-26T04:18:29;14.57;;;8.63;;
56141;SDS011;42018;48.588;10.836;2024-02-26T04:21:14;12.50;;;7.43;;
56141;SDS011;42018;48.588;10.836;2024-02-26T04:23:59;10.40;;;6.72;;
56141;SDS011;42018;48.588;10.836;2024-02-26T04:26:47;11.18;;;7.00;;
56141;SDS011;42018;48.588;10.836;2024-02-26T04:29:32;12.85;;;7.90;;
56141;SDS011;42018;48.588;10.836;2024-02-26T04:32:18;13.13;;;8.55;;
56141;SDS011;42018;48.588;10.836;2024-02-26T04:35:04;13.25;;;8.30;;
56141;SDS011;42018;48.588;10.836;2024-02-26T04:37:50;11.30;;;7.90;;
56141;SDS011;42018;48.588;10.836;2024-02-26T04:40:35;12.95;;;7.82;;
56141;SDS011;42018;48.588;10.836;2024-02-26T04:43:21;12.20;;;7.78;;
56141;SDS011;42018;48.588;10.836;2024-02-26T04:46:07;11.75;;;6.97;;
56141;SDS011;42018;48.588;10.836;2024-02-26T04:48:53;12.15;;;7.25;;
56141;SDS011;42018;48.588;10.836;2024-02-26T04:51:39;13.93;;;8.80;;
56141;SDS011;42018;48.588;10.836;2024-02-26T04:54:24;12.60;;;8.25;;
56141;SDS011;42018;48.588;10.836;2024-02-26T04:57:10;14.40;;;9.48;;
56141;SDS011;42018;48.588;10.836;2024-02-26T04:59:56;15.80;;;8.88;;
56141;SDS011;42018;48.588;10.836;2024-02-26T05:02:41;14.75;;;9.23;;
56141;SDS011;42018;48.588;10.836;2024-02-26T05:05:27;15.10;;;9.38;;
56141;SDS011;42018;48.588;10.836;2024-02-26T05:08:12;12.45;;;7.78;;
56141;SDS011;42018;48.588;10.836;2024-02-26T05:10:58;14.95;;;8.90;;
56141;SDS011;42018;48.588;10.836;2024-02-26T05:13:45;12.68;;;8.02;;
56141;SDS011;42018;48.588;10.836;2024-02-26T05:16:33;13.13;;;8.77;;
56141;SDS011;42018;48.588;10.836;2024-02-26T05:19:18;14.15;;;9.02;;
56141;SDS011;42018;48.588;10.836;2024-02-26T05:22:04;13.50;;;8.32;;
56141;SDS011;42018;48.588;10.836;2024-02-26T05:24:50;13.05;;;8.30;;
56141;SDS011;42018;48.588;10.836;2024-02-26T05:27:36;12.88;;;7.90;;
56141;SDS011;42018;48.588;10.836;2024-02-26T05:30:22;14.63;;;9.07;;
56141;SDS011;42018;48.588;10.836;2024-02-26T05:33:07;13.10;;;9.07;;
56141;SDS011;42018;48.588;10.836;2024-02-26T05:35:53;14.07;;;9.35;;
56141;SDS011;42018;48.588;10.836;2024-02-26T05:38:39;14.82;;;9.05;;
56141;SDS011;42018;48.588;10.836;2024-02-26T05:41:24;14.98;;;8.93;;
56141;SDS011;42018;48.588;10.836;2024-02-26T05:44:11;14.20;;;8.40;;
56141;SDS011;42018;48.588;10.836;2024-02-26T05:46:57;12.77;;;8.10;;
56141;SDS011;42018;48.588;10.836;2024-02-26T05:49:43;14.50;;;9.50;;
56141;SDS011;42018;48.588;10.836;2024-02-26T05:52:28;18.55;;;11.02;;
56141;SDS011;42018;48.588;10.836;2024-02-26T05:55:17;15.48;;;9.95;;
56141;SDS011;42018;48.588;10.836;2024-02-26T05:58:03;14.57;;;9.48;;
56141;SDS011;42018;48.588;10.836;2024-02-26T06:00:49;17.63;;;10.00;;
56141;SDS011;42018;48.588;10.836;2024-02-26T06:03:35;16.08;;;10.02;;
56141;SDS011;42018;48.588;10.836;2024-02-26T06:06:20;16.88;;;10.23;;
56141;SDS011;42018;48.588;10.836;2024-02-26T06:09:08;17.35;;;10.77;;
56141;SDS011;42018;48.588;10.836;2024-02-26T06:11:53;16.88;;;10.40;;
56141;SDS011;42018;48.588;10.836;2024-02-26T06:14:39;16.73;;;10.27;;
56141;SDS011;42018;48.588;10.836;2024-02-26T06:17:28;15.48;;;10.20;;
56141;SDS011;42018;48.588;10.836;2024-02-26T06:20:14;15.23;;;9.25;;
56141;SDS011;42018;48.588;10.836;2024-02-26T06:22:59;14.35;;;9.30;;
56141;SDS011;42018;48.588;10.836;2024-02-26T06:25:45;17.10;;;10.52;;
56141;SDS011;42018;48.588;10.836;2024-02-26T06:28:33;17.23;;;9.63;;
56141;SDS011;42018;48.588;10.836;2024-02-26T06:31:24;16.65;;;9.30;;
56141;SDS011;42018;48.588;10.836;2024-02-26T06:34:09;17.50;;;9.15;;
56141;SDS011;42018;48.588;10.836;2024-02-26T06:36:56;16.10;;;9.32;;
56141;SDS011;42018;48.588;10.836;2024-02-26T06:39:42;18.73;;;10.93;;
56141;SDS011;42018;48.588;10.836;2024-02-26T06:42:28;15.73;;;9.25;;
56141;SDS011;42018;48.588;10.836;2024-02-26T06:45:14;17.05;;;10.38;;
56141;SDS011;42018;48.588;10.836;2024-02-26T06:48:04;16.75;;;10.27;;
56141;SDS011;42018;48.588;10.836;2024-02-26T06:50:51;16.25;;;9.98;;
56141;SDS011;42018;48.588;10.836;2024-02-26T06:53:37;16.35;;;10.43;;
56141;SDS011;42018;48.588;10.836;2024-02-26T06:56:22;17.05;;;9.85;;
56141;SDS011;42018;48.588;10.836;2024-02-26T06:59:08;18.08;;;10.68;;
56141;SDS011;42018;48.588;10.836;2024-02-26T07:01:54;16.70;;;9.63;;
56141;SDS011;42018;48.588;10.836;2024-02-26T07:04:39;16.08;;;10.38;;
56141;SDS011;42018;48.588;10.836;2024-02-26T07:07:26;14.45;;;9.43;;
56141;SDS011;42018;48.588;10.836;2024-02-26T07:10:11;15.95;;;9.23;;
56141;SDS011;42018;48.588;10.836;2024-02-26T07:12:57;14.70;;;9.55;;
56141;SDS011;42018;48.588;10.836;2024-02-26T07:15:43;13.15;;;9.07;;
56141;SDS011;42018;48.588;10.836;2024-02-26T07:18:28;18.58;;;9.40;;
56141;SDS011;42018;48.588;10.836;2024-02-26T07:21:14;14.93;;;9.20;;
56141;SDS011;42018;48.588;10.836;2024-02-26T07:24:02;16.90;;;9.25;;
56141;SDS011;42018;48.588;10.836;2024-02-26T07:26:48;16.95;;;9.70;;
56141;SDS011;42018;48.588;10.836;2024-02-26T07:29:33;14.70;;;9.27;;
56141;SDS011;42018;48.588;10.836;2024-02-26T07:32:19;13.45;;;8.73;;
56141;SDS011;42018;48.588;10.836;2024-02-26T07:35:05;20.55;;;12.13;;
56141;SDS011;42018;48.588;10.836;2024-02-26T07:37:50;52.88;;;26.60;;
56141;SDS011;42018;48.588;10.836;2024-02-26T07:40:36;28.95;;;16.20;;
56141;SDS011;42018;48.588;10.836;2024-02-26T07:43:21;19.65;;;11.13;;
56141;SDS011;42018;48.588;10.836;2024-02-26T07:46:07;15.55;;;9.70;;
56141;SDS011;42018;48.588;10.836;2024-02-26T07:48:53;19.17;;;11.98;;
56141;SDS011;42018;48.588;10.836;2024-02-26T07:51:38;18.10;;;12.25;;
56141;SDS011;42018;48.588;10.836;2024-02-26T07:54:24;14.98;;;9.65;;
56141;SDS011;42018;48.588;10.836;2024-02-26T07:57:10;16.60;;;9.63;;
56141;SDS011;42018;48.588;10.836;2024-02-26T07:59:55;17.00;;;9.55;;
56141;SDS011;42018;48.588;10.836;2024-02-26T08:02:41;16.00;;;9.43;;
56141;SDS011;42018;48.588;10.836;2024-02-26T08:05:27;12.52;;;8.35;;
56141;SDS011;42018;48.588;10.836;2024-02-26T08:08:12;12.65;;;8.50;;
56141;SDS011;42018;48.588;10.836;2024-02-26T08:10:58;14.55;;;8.95;;
56141;SDS011;42018;48.588;10.836;2024-02-26T08:13:43;16.70;;;9.80;;
56141;SDS011;42018;48.588;10.836;2024-02-26T08:16:29;14.30;;;9.55;;
56141;SDS011;42018;48.588;10.836;2024-02-26T08:19:14;13.68;;;8.27;;
56141;SDS011;42018;48.588;10.836;2024-02-26T08:22:01;15.63;;;8.98;;
56141;SDS011;42018;48.588;10.836;2024-02-26T08:24:47;15.20;;;8.98;;
56141;SDS011;42018;48.588;10.836;2024-02-26T08:27:33;14.55;;;8.50;;
56141;SDS011;42018;48.588;10.836;2024-02-26T08:30:18;13.57;;;8.55;;
56141;SDS011;42018;48.588;10.836;2024-02-26T08:33:04;14.65;;;9.50;;
56141;SDS011;42018;48.588;10.836;2024-02-26T08:35:50;12.90;;;8.18;;
56141;SDS011;42018;48.588;10.836;2024-02-26T08:38:35;13.73;;;9.35;;
56141;SDS011;42018;48.588;10.836;2024-02-26T08:41:21;16.02;;;9.55;;
56141;SDS011;42018;48.588;10.836;2024-02-26T08:44:06;14.82;;;9.50;;
56141;SDS011;42018;48.588;10.836;2024-02-26T08:46:52;14.68;;;9.98;;
56141;SDS011;42018;48.588;10.836;2024-02-26T08:49:42;14.13;;;9.02;;
56141;SDS011;42018;48.588;10.836;2024-02-26T08:52:28;14.75;;;9.43;;
56141;SDS011;42018;48.588;10.836;2024-02-26T08:55:14;14.43;;;9.32;;
56141;SDS011;42018;48.588;10.836;2024-02-26T08:57:59;13.50;;;9.05;;
56141;SDS011;42018;48.588;10.836;2024-02-26T09:00:45;13.77;;;9.15;;
56141;SDS011;42018;48.588;10.836;2024-02-26T09:03:30;12.30;;;8.23;;
56141;SDS011;42018;48.588;10.836;2024-02-26T09:06:16;12.48;;;7.75;;
56141;SDS011;42018;48.588;10.836;2024-02-26T09:09:02;13.07;;;7.20;;
56141;SDS011;42018;48.588;10.836;2024-02-26T09:11:48;11.40;;;7.30;;
56141;SDS011;42018;48.588;10.836;2024-02-26T09:14:36;13.05;;;8.88;;
56141;SDS011;42018;48.588;10.836;2024-02-26T09:17:22;14.68;;;8.82;;
56141;SDS011;42018;48.588;10.836;2024-02-26T09:20:08;12.80;;;8.05;;
56141;SDS011;42018;48.588;10.836;2024-02-26T09:22:54;15.45;;;8.95;;
56141;SDS011;42018;48.588;10.836;2024-02-26T09:25:40;14.15;;;8.90;;
56141;SDS011;42018;48.588;10.836;2024-02-26T09:28:26;13.30;;;8.90;;
56141;SDS011;42018;48.588;10.836;2024-02-26T09:31:11;14.18;;;8.25;;
56141;SDS011;42018;48.588;10.836;2024-02-26T09:33:57;15.00;;;8.18;;
56141;SDS011;42018;48.588;10.836;2024-02-26T09:36:43;13.05;;;8.23;;
56141;SDS011;42018;48.588;10.836;2024-02-26T09:39:28;14.00;;;8.45;;
56141;SDS011;42018;48.588;10.836;2024-02-26T09:42:14;12.02;;;8.27;;
56141;SDS011;42018;48.588;10.836;2024-02-26T09:45:05;13.90;;;7.57;;
56141;SDS011;42018;48.588;10.836;2024-02-26T09:47:55;11.82;;;7.65;;
56141;SDS011;42018;48.588;10.836;2024-02-26T09:50:41;12.13;;;6.65;;
56141;SDS011;42018;48.588;10.836;2024-02-26T09:53:29;12.38;;;7.45;;
56141;SDS011;42018;48.588;10.836;2024-02-26T09:56:18;12.38;;;7.60;;
56141;SDS011;42018;48.588;10.836;2024-02-26T09:59:06;11.85;;;7.53;;
56141;SDS011;42018;48.588;10.836;2024-02-26T10:02:00;13.45;;;7.85;;
56141;SDS011;42018;48.588;10.836;2024-02-26T10:04:46;12.27;;;7.82;;
56141;SDS011;42018;48.588;10.836;2024-02-26T10:07:35;12.73;;;8.02;;
56141;SDS011;42018;48.588;10.836;2024-02-26T10:10:21;12.75;;;8.10;;
56141;SDS011;42018;48.588;10.836;2024-02-26T10:13:07;13.35;;;8.57;;
56141;SDS011;42018;48.588;10.836;2024-02-26T10:15:55;11.30;;;7.15;;
56141;SDS011;42018;48.588;10.836;2024-02-26T10:18:47;10.93;;;7.68;;
56141;SDS011;42018;48.588;10.836;2024-02-26T10:21:36;12.93;;;8.00;;
56141;SDS011;42018;48.588;10.836;2024-02-26T10:24:22;11.27;;;7.25;;
56141;SDS011;42018;48.588;10.836;2024-02-26T10:27:07;13.95;;;8.10;;
56141;SDS011;42018;48.588;10.836;2024-02-26T10:29:56;10.65;;;7.13;;
56141;SDS011;42018;48.588;10.836;2024-02-26T10:32:42;11.95;;;7.20;;
56141;SDS011;42018;48.588;10.836;2024-02-26T10:35:28;10.00;;;6.30;;
56141;SDS011;42018;48.588;10.836;2024-02-26T10:38:17;13.82;;;7.15;;
56141;SDS011;42018;48.588;10.836;2024-02-26T10:41:05;11.38;;;7.25;;
56141;SDS011;42018;48.588;10.836;2024-02-26T10:43:52;9.93;;;6.28;;
56141;SDS011;42018;48.588;10.836;2024-02-26T10:46:37;11.63;;;7.30;;
56141;SDS011;42018;48.588;10.836;2024-02-26T10:49:26;10.73;;;6.53;;
56141;SDS011;42018;48.588;10.836;2024-02-26T10:52:12;11.00;;;7.70;;
56141;SDS011;42018;48.588;10.836;2024-02-26T10:55:02;12.63;;;7.65;;
56141;SDS011;42018;48.588;10.836;2024-02-26T10:57:50;11.30;;;7.07;;
56141;SDS011;42018;48.588;10.836;2024-02-26T11:00:38;11.15;;;7.13;;
56141;SDS011;42018;48.588;10.836;2024-02-26T11:03:25;13.50;;;7.03;;
56141;SDS011;42018;48.588;10.836;2024-02-26T11:06:12;11.10;;;7.22;;
56141;SDS011;42018;48.588;10.836;2024-02-26T11:08:58;10.90;;;6.93;;
56141;SDS011;42018;48.588;10.836;2024-02-26T11:11:44;10.43;;;7.15;;
56141;SDS011;42018;48.588;10.836;2024-02-26T11:14:30;10.85;;;6.65;;
56141;SDS011;42018;48.588;10.836;2024-02-26T11:17:17;10.18;;;7.95;;
56141;SDS011;42018;48.588;10.836;2024-02-26T11:20:12;11.30;;;6.93;;
56141;SDS011;42018;48.588;10.836;2024-02-26T11:23:00;11.85;;;7.75;;
56141;SDS011;42018;48.588;10.836;2024-02-26T11:25:45;12.13;;;8.60;;
56141;SDS011;42018;48.588;10.836;2024-02-26T11:28:32;11.38;;;7.55;;
56141;SDS011;42018;48.588;10.836;2024-02-26T11:31:19;10.30;;;7.25;;
56141;SDS011;42018;48.588;10.836;2024-02-26T11:34:12;12.57;;;7.80;;
56141;SDS011;42018;48.588;10.836;2024-02-26T11:37:08;10.73;;;7.95;;
56141;SDS011;42018;48.588;10.836;2024-02-26T11:39:55;11.05;;;7.57;;
56141;SDS011;42018;48.588;10.836;2024-02-26T11:42:44;11.45;;;8.07;;
56141;SDS011;42018;48.588;10.836;2024-02-26T11:48:25;11.95;;;8.43;;
56141;SDS011;42018;48.588;10.836;2024-02-26T11:51:13;11.90;;;8.00;;
56141;SDS011;42018;48.588;10.836;2024-02-26T11:53:59;11.70;;;8.48;;
56141;SDS011;42018;48.588;10.836;2024-02-26T11:56:45;12.13;;;8.30;;
56141;SDS011;42018;48.588;10.836;2024-02-26T11:59:38;12.50;;;7.50;;
56141;SDS011;42018;48.588;10.836;2024-02-26T12:05:31;10.05;;;7.63;;
56141;SDS011;42018;48.588;10.836;2024-02-26T12:08:18;11.15;;;8.13;;
56141;SDS011;42018;48.588;10.836;2024-02-26T12:11:14;8.45;;;6.68;;
56141;SDS011;42018;48.588;10.836;2024-02-26T12:14:00;9.13;;;6.57;;
56141;SDS011;42018;48.588;10.836;2024-02-26T12:16:46;9.15;;;6.63;;
56141;SDS011;42018;48.588;10.836;2024-02-26T12:19:35;12.32;;;6.30;;
56141;SDS011;42018;48.588;10.836;2024-02-26T12:22:21;9.23;;;6.32;;
56141;SDS011;42018;48.588;10.836;2024-02-26T12:25:09;9.40;;;6.90;;
56141;SDS011;42018;48.588;10.836;2024-02-26T12:27:55;8.90;;;6.45;;
56141;SDS011;42018;48.588;10.836;2024-02-26T12:30:41;9.77;;;5.88;;
56141;SDS011;42018;48.588;10.836;2024-02-26T12:33:26;9.02;;;6.10;;
56141;SDS011;42018;48.588;10.836;2024-02-26T12:36:14;10.50;;;5.38;;
56141;SDS011;42018;48.588;10.836;2024-02-26T12:39:00;8.95;;;6.57;;
56141;SDS011;42018;48.588;10.836;2024-02-26T12:41:47;9.35;;;6.65;;
56141;SDS011;42018;48.588;10.836;2024-02-26T12:44:35;9.40;;;7.35;;
56141;SDS011;42018;48.588;10.836;2024-02-26T12:47:22;9.25;;;6.45;;
56141;SDS011;42018;48.588;10.836;2024-02-26T12:50:08;10.90;;;7.22;;
56141;SDS011;42018;48.588;10.836;2024-02-26T12:52:55;9.30;;;7.35;;
56141;SDS011;42018;48.588;10.836;2024-02-26T12:55:40;11.73;;;7.20;;
56141;SDS011;42018;48.588;10.836;2024-02-26T12:58:27;9.52;;;7.07;;
56141;SDS011;42018;48.588;10.836;2024-02-26T13:01:15;11.23;;;6.32;;
56141;SDS011;42018;48.588;10.836;2024-02-26T13:04:03;9.77;;;6.78;;
56141;SDS011;42018;48.588;10.836;2024-02-26T13:06:51;10.30;;;6.57;;
56141;SDS011;42018;48.588;10.836;2024-02-26T13:09:37;10.32;;;7.00;;
56141;SDS011;42018;48.588;10.836;2024-02-26T13:12:23;8.85;;;6.80;;
56141;SDS011;42018;48.588;10.836;2024-02-26T13:15:13;10.43;;;6.75;;
56141;SDS011;42018;48.588;10.836;2024-02-26T13:18:08;9.80;;;6.68;;
56141;SDS011;42018;48.588;10.836;2024-02-26T13:26:41;9.80;;;5.40;;
56141;SDS011;42018;48.588;10.836;2024-02-26T13:29:26;9.95;;;5.82;;
56141;SDS011;42018;48.588;10.836;2024-02-26T13:32:12;8.18;;;5.75;;
56141;SDS011;42018;48.588;10.836;2024-02-26T13:35:11;10.15;;;6.85;;
56141;SDS011;42018;48.588;10.836;2024-02-26T13:37:58;9.68;;;6.25;;
56141;SDS011;42018;48.588;10.836;2024-02-26T13:40:43;11.20;;;5.85;;
56141;SDS011;42018;48.588;10.836;2024-02-26T13:43:29;9.23;;;6.82;;
56141;SDS011;42018;48.588;10.836;2024-02-26T13:46:15;8.38;;;5.18;;
56141;SDS011;42018;48.588;10.836;2024-02-26T13:49:00;7.85;;;6.32;;
56141;SDS011;42018;48.588;10.836;2024-02-26T13:51:46;8.85;;;5.75;;
56141;SDS011;42018;48.588;10.836;2024-02-26T13:54:31;9.57;;;6.32;;
56141;SDS011;42018;48.588;10.836;2024-02-26T13:57:18;8.45;;;5.53;;
56141;SDS011;42018;48.588;10.836;2024-02-26T14:00:05;8.80;;;6.55;;
56141;SDS011;42018;48.588;10.836;2024-02-26T14:02:57;7.93;;;5.63;;
56141;SDS011;42018;48.588;10.836;2024-02-26T14:05:43;9.23;;;6.03;;
56141;SDS011;42018;48.588;10.836;2024-02-26T14:08:29;9.43;;;5.82;;
56141;SDS011;42018;48.588;10.836;2024-02-26T14:11:14;8.55;;;6.13;;
56141;SDS011;42018;48.588;10.836;2024-02-26T14:14:00;9.02;;;6.65;;
56141;SDS011;42018;48.588;10.836;2024-02-26T14:16:46;11.43;;;6.38;;
56141;SDS011;42018;48.588;10.836;2024-02-26T14:19:31;9.85;;;6.65;;
56141;SDS011;42018;48.588;10.836;2024-02-26T14:22:17;8.38;;;5.85;;
56141;SDS011;42018;48.588;10.836;2024-02-26T14:25:03;9.48;;;6.93;;
56141;SDS011;42018;48.588;10.836;2024-02-26T14:27:49;11.50;;;6.63;;
56141;SDS011;42018;48.588;10.836;2024-02-26T14:30:34;11.48;;;7.25;;
56141;SDS011;42018;48.588;10.836;2024-02-26T14:33:20;9.85;;;6.10;;
56141;SDS011;42018;48.588;10.836;2024-02-26T14:36:06;9.02;;;7.05;;
56141;SDS011;42018;48.588;10.836;2024-02-26T14:38:52;10.10;;;6.63;;
56141;SDS011;42018;48.588;10.836;2024-02-26T14:41:38;8.25;;;6.22;;
56141;SDS011;42018;48.588;10.836;2024-02-26T14:44:24;9.43;;;6.43;;
56141;SDS011;42018;48.588;10.836;2024-02-26T14:47:10;8.75;;;6.80;;
56141;SDS011;42018;48.588;10.836;2024-02-26T14:49:56;8.07;;;5.95;;
56141;SDS011;42018;48.588;10.836;2024-02-26T14:52:41;8.85;;;5.50;;
56141;SDS011;42018;48.588;10.836;2024-02-26T14:55:27;11.85;;;5.40;;
56141;SDS011;42018;48.588;10.836;2024-02-26T14:58:14;9.25;;;6.65;;
56141;SDS011;42018;48.588;10.836;2024-02-26T15:00:59;9.23;;;5.75;;
56141;SDS011;42018;48.588;10.836;2024-02-26T15:03:45;8.20;;;5.53;;
56141;SDS011;42018;48.588;10.836;2024-02-26T15:06:31;7.75;;;5.88;;
56141;SDS011;42018;48.588;10.836;2024-02-26T15:09:16;8.02;;;5.38;;
56141;SDS011;42018;48.588;10.836;2024-02-26T15:12:02;8.48;;;5.82;;
56141;SDS011;42018;48.588;10.836;2024-02-26T15:14:50;8.80;;;5.75;;
56141;SDS011;42018;48.588;10.836;2024-02-26T15:17:35;8.10;;;5.43;;
56141;SDS011;42018;48.588;10.836;2024-02-26T15:20:21;6.97;;;5.18;;
56141;SDS011;42018;48.588;10.836;2024-02-26T15:23:07;7.47;;;5.03;;
56141;SDS011;42018;48.588;10.836;2024-02-26T15:25:53;11.82;;;5.68;;
56141;SDS011;42018;48.588;10.836;2024-02-26T15:28:39;8.55;;;5.22;;
56141;SDS011;42018;48.588;10.836;2024-02-26T15:31:25;8.38;;;5.47;;
56141;SDS011;42018;48.588;10.836;2024-02-26T15:34:10;10.50;;;6.45;;
56141;SDS011;42018;48.588;10.836;2024-02-26T15:36:57;7.20;;;4.68;;
56141;SDS011;42018;48.588;10.836;2024-02-26T15:39:42;7.80;;;5.38;;
56141;SDS011;42018;48.588;10.836;2024-02-26T15:42:28;9.00;;;4.80;;
56141;SDS011;42018;48.588;10.836;2024-02-26T15:45:14;8.57;;;4.97;;
56141;SDS011;42018;48.588;10.836;2024-02-26T15:48:00;7.45;;;4.78;;
56141;SDS011;42018;48.588;10.836;2024-02-26T15:50:46;6.60;;;5.13;;
56141;SDS011;42018;48.588;10.836;2024-02-26T15:53:32;7.13;;;4.80;;
56141;SDS011;42018;48.588;10.836;2024-02-26T15:56:17;6.43;;;4.50;;
56141;SDS011;42018;48.588;10.836;2024-02-26T15:59:03;6.10;;;4.10;;
56141;SDS011;42018;48.588;10.836;2024-02-26T16:01:49;7.75;;;5.28;;
56141;SDS011;42018;48.588;10.836;2024-02-26T16:04:34;6.55;;;4.32;;
56141;SDS011;42018;48.588;10.836;2024-02-26T16:07:24;7.50;;;5.00;;
56141;SDS011;42018;48.588;10.836;2024-02-26T16:10:15;7.95;;;4.60;;
56141;SDS011;42018;48.588;10.836;2024-02-26T16:13:02;8.05;;;3.95;;
56141;SDS011;42018;48.588;10.836;2024-02-26T16:16:03;8.35;;;4.72;;
56141;SDS011;42018;48.588;10.836;2024-02-26T16:18:53;6.20;;;4.18;;
56141;SDS011;42018;48.588;10.836;2024-02-26T16:21:50;7.55;;;4.53;;
56141;SDS011;42018;48.588;10.836;2024-02-26T16:24:35;7.10;;;4.72;;
56141;SDS011;42018;48.588;10.836;2024-02-26T16:27:21;6.55;;;3.92;;
56141;SDS011;42018;48.588;10.836;2024-02-26T16:30:07;8.43;;;5.47;;